Time;durP1;ratioP1;P1;durP2;ratioP2;P2;SDS_P1;SDS_P2;PMS_P1;PMS_P2;Temp;Humidity;BMP_temperature;BMP_pressure;BME280_temperature;BME280_humidity;BME280_pressure;Samples;Min_cycle;Max_cycle;Signal;HPM_P1;HPM_P2
2022/03/08 00:01:29;;;;;;;10.70;4.57;;;1.70;99.90;;;;;;4131332;28;20535;-77
2022/03/08 00:03:31;;;;;;;8.07;3.93;;;2.50;99.90;;;;;;4130971;28;20553;-77
2022/03/08 00:05:33;;;;;;;9.03;4.10;;;1.80;99.90;;;;;;4129468;28;20514;-77
2022/03/08 00:07:36;;;;;;;8.40;3.87;;;1.80;99.90;;;;;;4131156;28;20832;-77
2022/03/08 00:09:38;;;;;;;7.83;3.83;;;1.80;99.90;;;;;;4130236;28;20832;-78
2022/03/08 00:11:41;;;;;;;7.83;4.10;;;1.80;99.90;;;;;;4130083;28;21070;-77
2022/03/08 00:13:43;;;;;;;10.00;4.03;;;1.40;99.90;;;;;;4130409;28;20975;-77
2022/03/08 00:15:45;;;;;;;8.03;4.10;;;1.70;99.90;;;;;;4130844;28;20901;-77
2022/03/08 00:17:48;;;;;;;8.30;4.07;;;1.70;99.90;;;;;;4121931;28;20473;-77
2022/03/08 00:19:50;;;;;;;9.30;4.00;;;1.70;99.90;;;;;;4130176;28;20529;-77
2022/03/08 00:21:52;;;;;;;11.03;4.20;;;1.60;99.90;;;;;;4130883;28;20542;-77
2022/03/08 00:23:55;;;;;;;7.80;3.57;;;1.60;99.90;;;;;;4131465;28;20940;-78
2022/03/08 00:25:59;;;;;;;6.73;3.60;;;1.60;99.90;;;;;;4118301;28;20483;-77
2022/03/08 00:28:03;;;;;;;9.93;4.10;;;1.60;99.90;;;;;;4125629;28;20984;-76
2022/03/08 00:30:06;;;;;;;7.17;3.80;;;1.60;99.90;;;;;;4131148;28;20466;-78
2022/03/08 00:32:09;;;;;;;8.90;3.90;;;1.50;99.90;;;;;;4130760;28;20990;-75
2022/03/08 00:34:10;;;;;;;7.03;3.97;;;1.50;99.90;;;;;;4124074;28;20981;-78
2022/03/08 00:36:12;;;;;;;7.33;3.63;;;1.50;99.90;;;;;;4131376;28;20458;-75
2022/03/08 00:38:15;;;;;;;9.40;3.93;;;1.40;99.90;;;;;;4118989;28;20533;-75
2022/03/08 00:40:18;;;;;;;8.97;3.87;;;1.40;99.90;;;;;;4114639;28;20952;-76
2022/03/08 00:42:20;;;;;;;7.23;3.90;;;1.40;99.90;;;;;;4130413;28;20466;-76
2022/03/08 00:44:23;;;;;;;8.83;4.30;;;2.10;99.90;;;;;;4123411;28;20495;-75
2022/03/08 00:46:25;;;;;;;7.00;4.00;;;1.40;99.90;;;;;;4115791;28;20828;-76
2022/03/08 00:48:27;;;;;;;8.37;4.03;;;1.30;99.90;;;;;;4128363;28;20471;-76
2022/03/08 00:50:32;;;;;;;8.70;3.67;;;1.30;99.90;;;;;;4115607;28;21008;-76
2022/03/08 00:52:34;;;;;;;7.50;4.00;;;1.30;99.90;;;;;;4115230;28;20446;-76
2022/03/08 00:54:37;;;;;;;7.10;3.80;;;1.30;99.90;;;;;;4132906;28;20533;-75
2022/03/08 00:56:39;;;;;;;7.87;4.13;;;1.20;99.90;;;;;;4134407;28;20488;-76
2022/03/08 00:58:41;;;;;;;6.80;3.23;;;1.20;99.90;;;;;;4134062;28;20455;-76
2022/03/08 01:00:44;;;;;;;6.93;3.40;;;1.20;99.90;;;;;;4126224;28;20558;-75
2022/03/08 01:02:46;;;;;;;7.33;3.23;;;1.50;99.90;;;;;;4121861;28;20943;-76
2022/03/08 01:04:48;;;;;;;8.03;4.07;;;1.10;99.90;;;;;;4136559;28;20510;-78
2022/03/08 01:06:50;;;;;;;7.37;3.80;;;1.10;99.90;;;;;;4149358;28;20543;-77
2022/03/08 01:08:52;;;;;;;11.43;3.53;;;1.10;99.90;;;;;;4148696;28;20471;-76
2022/03/08 01:10:54;;;;;;;7.80;3.80;;;1.10;99.90;;;;;;4150049;28;20484;-76
2022/03/08 01:12:57;;;;;;;6.43;3.40;;;1.10;99.90;;;;;;4140828;28;20482;-75
2022/03/08 01:15:01;;;;;;;9.83;3.80;;;0.80;99.90;;;;;;4126228;28;20500;-75
2022/03/08 01:17:05;;;;;;;7.57;3.63;;;1.80;99.90;;;;;;4117885;28;20458;-75
2022/03/08 01:19:10;;;;;;;9.80;3.73;;;1.00;99.90;;;;;;4120294;28;20462;-75
2022/03/08 01:21:14;;;;;;;7.07;3.67;;;1.00;99.90;;;;;;4133353;28;20482;-76
2022/03/08 01:23:16;;;;;;;7.13;3.63;;;0.90;99.90;;;;;;4126707;28;20453;-76
2022/03/08 01:25:20;;;;;;;8.97;3.50;;;0.90;99.90;;;;;;4131881;28;20538;-75
2022/03/08 01:27:24;;;;;;;6.90;3.73;;;0.90;99.90;;;;;;4133556;28;20492;-75
2022/03/08 01:29:26;;;;;;;5.43;3.20;;;0.90;99.90;;;;;;4133134;28;20475;-75
2022/03/08 01:31:28;;;;;;;7.40;3.33;;;0.80;99.90;;;;;;4133650;28;20832;-77
2022/03/08 01:33:31;;;;;;;7.03;3.33;;;0.80;99.90;;;;;;4124567;28;20949;-77
2022/03/08 01:35:34;;;;;;;7.70;3.77;;;1.00;99.90;;;;;;4121896;28;20518;-77
2022/03/08 01:37:36;;;;;;;5.10;2.73;;;0.80;99.90;;;;;;4127829;28;20484;-77
2022/03/08 01:39:37;;;;;;;4.83;3.07;;;0.70;99.90;;;;;;4138718;28;20504;-78
2022/03/08 01:41:39;;;;;;;7.97;3.70;;;0.70;99.90;;;;;;4133173;28;20905;-76
2022/03/08 01:43:45;;;;;;;7.47;3.20;;;0.70;99.90;;;;;;4132626;28;20468;-76
2022/03/08 01:45:47;;;;;;;6.00;3.20;;;0.70;99.90;;;;;;4123863;28;20473;-75
2022/03/08 01:47:49;;;;;;;5.90;3.00;;;0.60;99.90;;;;;;4117928;28;20493;-75
2022/03/08 01:49:54;;;;;;;8.43;3.67;;;0.60;99.90;;;;;;4117017;28;20469;-76
2022/03/08 01:51:56;;;;;;;6.60;3.57;;;0.60;99.90;;;;;;4122028;28;20967;-75
2022/03/08 01:53:58;;;;;;;7.23;3.57;;;0.60;99.90;;;;;;4132909;28;20472;-77
2022/03/08 01:55:59;;;;;;;8.57;4.03;;;0.60;99.90;;;;;;4131750;28;20933;-78
2022/03/08 01:58:02;;;;;;;9.10;4.13;;;0.50;99.90;;;;;;4116789;28;20450;-76
2022/03/08 02:00:07;;;;;;;6.37;3.37;;;0.50;99.90;;;;;;4131954;28;20527;-78
2022/03/08 02:02:10;;;;;;;8.37;4.00;;;0.40;99.90;;;;;;4132842;28;20514;-78
2022/03/08 02:04:12;;;;;;;8.03;3.60;;;0.40;99.90;;;;;;4131761;28;20953;-75
2022/03/08 02:06:16;;;;;;;7.03;3.60;;;0.40;99.90;;;;;;4126858;28;20522;-77
2022/03/08 02:08:17;;;;;;;8.17;3.70;;;0.30;99.90;;;;;;4132096;28;20536;-76
2022/03/08 02:10:19;;;;;;;6.47;3.47;;;0.30;99.90;;;;;;4132972;28;20890;-79
2022/03/08 02:12:21;;;;;;;9.57;3.53;;;0.20;99.90;;;;;;4133187;28;20460;-77
2022/03/08 02:14:23;;;;;;;7.57;3.73;;;0.20;99.90;;;;;;4132232;28;20478;-75
2022/03/08 02:16:24;;;;;;;6.43;3.47;;;0.20;99.90;;;;;;4131496;28;20458;-75
2022/03/08 02:18:26;;;;;;;7.90;3.50;;;0.30;99.90;;;;;;4132396;28;20522;-75
2022/03/08 02:20:29;;;;;;;7.50;3.50;;;0.10;99.90;;;;;;4132558;28;20557;-75
2022/03/08 02:22:32;;;;;;;8.90;3.60;;;0.10;99.90;;;;;;4130661;28;20472;-75
2022/03/08 02:24:34;;;;;;;8.43;3.70;;;0.10;99.90;;;;;;4129734;28;20464;-76
2022/03/08 02:26:37;;;;;;;7.53;3.17;;;0.10;99.90;;;;;;4127701;28;20553;-75
2022/03/08 02:28:40;;;;;;;5.47;3.00;;;0.10;99.90;;;;;;4132004;28;20464;-77
2022/03/08 02:30:42;;;;;;;6.17;3.50;;;0.10;99.90;;;;;;4128239;28;20530;-78
2022/03/08 02:32:44;;;;;;;10.43;3.30;;;0.10;99.90;;;;;;4119862;28;20472;-77
2022/03/08 02:34:46;;;;;;;7.60;3.63;;;0.00;99.90;;;;;;4122599;28;20476;-77
2022/03/08 02:37:04;;;;;;;6.30;3.43;;;0.00;99.90;;;;;;4119373;28;20590;-77
2022/03/08 02:39:07;;;;;;;7.57;3.43;;;0.00;99.90;;;;;;4125278;28;20545;-77
2022/03/08 02:41:09;;;;;;;7.30;3.50;;;0.20;99.90;;;;;;4124943;28;20840;-77
2022/03/08 02:43:12;;;;;;;7.47;3.77;;;0.00;99.90;;;;;;4126086;28;20477;-77
2022/03/08 02:45:16;;;;;;;7.67;3.83;;;0.00;99.90;;;;;;4131923;28;20692;-77
2022/03/08 02:47:18;;;;;;;6.47;3.03;;;-0.10;99.90;;;;;;4128020;28;20488;-77
2022/03/08 02:49:20;;;;;;;6.77;3.43;;;-0.10;99.90;;;;;;4131933;28;20452;-77
2022/03/08 02:51:21;;;;;;;7.10;3.90;;;-0.10;99.90;;;;;;4132471;28;20491;-77
2022/03/08 02:53:24;;;;;;;6.23;3.57;;;0.20;99.90;;;;;;4132390;28;20481;-77
2022/03/08 02:55:30;;;;;;;7.27;3.63;;;-0.20;99.90;;;;;;4131321;28;20451;-75
2022/03/08 02:57:31;;;;;;;7.60;3.50;;;-0.20;99.90;;;;;;4122994;28;20468;-77
2022/03/08 02:59:33;;;;;;;5.60;3.10;;;-0.20;99.90;;;;;;4125693;28;20441;-77
2022/03/08 03:01:35;;;;;;;7.87;3.43;;;-0.20;99.90;;;;;;4129881;28;20509;-78
2022/03/08 03:03:37;;;;;;;6.73;3.17;;;-0.20;99.90;;;;;;4132180;28;20461;-76
2022/03/08 03:05:39;;;;;;;9.83;3.63;;;-0.20;99.90;;;;;;4135358;28;20460;-78
2022/03/08 03:07:41;;;;;;;10.03;3.90;;;-0.30;99.90;;;;;;4132067;28;20508;-75
2022/03/08 03:09:43;;;;;;;9.70;3.90;;;-0.20;99.90;;;;;;4129013;28;20477;-76
2022/03/08 03:11:46;;;;;;;5.70;3.23;;;-0.30;99.90;;;;;;4131466;28;20464;-78
2022/03/08 03:13:48;;;;;;;7.73;3.73;;;-0.30;99.90;;;;;;4131119;28;20870;-78
2022/03/08 03:15:50;;;;;;;8.77;3.90;;;-0.30;99.90;;;;;;4130236;28;20491;-75
2022/03/08 03:17:51;;;;;;;10.03;3.33;;;-0.20;99.90;;;;;;4131380;28;20472;-75
2022/03/08 03:19:53;;;;;;;8.27;3.70;;;-0.60;99.90;;;;;;4127174;28;20523;-78
2022/03/08 03:21:55;;;;;;;7.37;3.53;;;-0.40;99.90;;;;;;4116007;28;20421;-75
2022/03/08 03:23:57;;;;;;;6.87;3.57;;;-0.40;99.90;;;;;;4117495;28;20453;-77
2022/03/08 03:25:59;;;;;;;7.40;3.70;;;-0.40;99.90;;;;;;4130868;28;20488;-77
2022/03/08 03:28:02;;;;;;;6.37;3.40;;;-0.40;99.90;;;;;;4131304;28;20889;-77
2022/03/08 03:30:05;;;;;;;4.33;2.83;;;-0.50;99.90;;;;;;4130390;28;20475;-78
2022/03/08 03:32:08;;;;;;;9.33;4.00;;;-0.50;99.90;;;;;;4131925;28;20460;-77
2022/03/08 03:34:09;;;;;;;7.80;3.47;;;-0.50;99.90;;;;;;4130473;28;20477;-78
2022/03/08 03:36:11;;;;;;;6.13;3.17;;;-0.50;99.90;;;;;;4131558;28;20475;-77
2022/03/08 03:38:13;;;;;;;6.43;3.03;;;-0.50;99.90;;;;;;4125388;28;20512;-78
2022/03/08 03:40:16;;;;;;;5.83;3.30;;;-0.50;99.90;;;;;;4132795;28;20497;-77
2022/03/08 03:42:18;;;;;;;8.23;3.37;;;-0.50;99.90;;;;;;4130396;28;20491;-77
2022/03/08 03:44:21;;;;;;;8.67;3.57;;;-0.60;99.90;;;;;;4131184;28;20436;-77
2022/03/08 03:46:23;;;;;;;7.50;3.67;;;-0.60;99.90;;;;;;4130417;28;20463;-77
2022/03/08 03:48:24;;;;;;;7.07;3.47;;;-0.60;99.90;;;;;;4131665;28;20494;-78
2022/03/08 03:50:26;;;;;;;5.87;3.20;;;-0.60;99.90;;;;;;4124366;28;20499;-78
2022/03/08 03:52:29;;;;;;;7.33;3.50;;;-0.70;99.90;;;;;;4131005;28;20481;-78
2022/03/08 03:54:31;;;;;;;7.23;3.57;;;-0.70;99.90;;;;;;4131354;28;20510;-78
2022/03/08 03:56:32;;;;;;;8.30;3.27;;;-0.70;99.90;;;;;;4130595;28;20848;-78
2022/03/08 03:58:34;;;;;;;6.50;3.70;;;-0.70;99.90;;;;;;4127518;28;20535;-79
2022/03/08 04:00:37;;;;;;;6.57;3.20;;;-0.70;99.90;;;;;;4128607;28;20491;-77
2022/03/08 04:02:39;;;;;;;7.97;3.30;;;-0.70;99.90;;;;;;4118990;28;20464;-77
2022/03/08 04:04:41;;;;;;;6.70;3.17;;;-0.70;99.90;;;;;;4124529;28;20468;-78
2022/03/08 04:06:43;;;;;;;8.47;3.70;;;-0.80;99.90;;;;;;4121627;28;20471;-77
2022/03/08 04:08:45;;;;;;;6.07;3.10;;;-0.80;99.90;;;;;;4130450;28;20534;-77
2022/03/08 04:10:47;;;;;;;7.67;3.83;;;-0.80;99.90;;;;;;4122594;28;20472;-78
2022/03/08 04:12:49;;;;;;;6.73;3.70;;;-0.80;99.90;;;;;;4130783;28;20999;-78
2022/03/08 04:14:51;;;;;;;7.00;3.40;;;-0.80;99.90;;;;;;4131419;28;20463;-77
2022/03/08 04:16:57;;;;;;;8.37;3.57;;;-0.80;99.90;;;;;;4131322;28;20661;-77
2022/03/08 04:19:01;;;;;;;8.57;3.80;;;-0.90;99.90;;;;;;4131591;28;20442;-77
2022/03/08 04:21:03;;;;;;;12.30;3.87;;;-0.80;99.90;;;;;;4130093;28;20922;-74
2022/03/08 04:23:05;;;;;;;7.47;3.53;;;-0.90;99.90;;;;;;4130449;28;20503;-77
2022/03/08 04:25:07;;;;;;;8.03;3.60;;;-0.90;99.90;;;;;;4128610;28;20900;-77
2022/03/08 04:27:09;;;;;;;6.93;3.70;;;-0.90;99.90;;;;;;4130179;28;20467;-77
2022/03/08 04:29:11;;;;;;;7.63;3.97;;;-0.90;99.90;;;;;;4133675;28;21004;-78
2022/03/08 04:31:13;;;;;;;10.33;3.80;;;-0.60;99.90;;;;;;4133091;28;20476;-78
2022/03/08 04:33:16;;;;;;;6.47;3.40;;;-0.90;99.90;;;;;;4133520;28;20486;-77
2022/03/08 04:35:18;;;;;;;8.23;3.70;;;-1.00;99.90;;;;;;4134137;28;20480;-78
2022/03/08 04:37:20;;;;;;;7.20;3.63;;;-1.00;99.90;;;;;;4133349;28;20526;-77
2022/03/08 04:39:22;;;;;;;10.07;4.37;;;-1.00;99.90;;;;;;4133469;28;20811;-77
2022/03/08 04:41:24;;;;;;;7.63;3.30;;;-1.00;99.90;;;;;;4132145;28;20482;-79
2022/03/08 04:43:25;;;;;;;8.17;3.70;;;-1.20;99.90;;;;;;4125865;28;20484;-78
2022/03/08 04:45:27;;;;;;;7.97;3.83;;;-1.00;99.90;;;;;;4133515;28;20448;-78
2022/03/08 04:47:29;;;;;;;9.93;4.20;;;-1.10;99.90;;;;;;4133261;28;20467;-77
2022/03/08 04:49:32;;;;;;;9.23;3.67;;;-1.00;99.90;;;;;;4133182;28;20475;-77
2022/03/08 04:51:34;;;;;;;12.93;3.43;;;-1.10;99.90;;;;;;4128183;28;20465;-78
2022/03/08 04:53:35;;;;;;;7.73;3.77;;;-1.10;99.90;;;;;;4119726;28;20481;-77
2022/03/08 04:55:37;;;;;;;8.47;4.23;;;-1.10;99.90;;;;;;4130190;28;20940;-77
2022/03/08 04:57:39;;;;;;;9.60;4.30;;;-1.10;99.90;;;;;;4133116;28;21102;-77
2022/03/08 04:59:41;;;;;;;8.50;3.90;;;-1.10;99.90;;;;;;4133502;28;20475;-78
2022/03/08 05:01:44;;;;;;;6.53;3.50;;;-0.50;99.90;;;;;;4131431;28;20475;-78
2022/03/08 05:03:46;;;;;;;7.97;3.63;;;-1.20;99.90;;;;;;4126594;28;20487;-77
2022/03/08 05:05:49;;;;;;;8.70;3.93;;;-1.20;99.90;;;;;;4133588;28;20861;-77
2022/03/08 05:07:51;;;;;;;8.53;4.00;;;-1.20;99.90;;;;;;4132597;28;20495;-78
2022/03/08 05:09:53;;;;;;;9.40;3.67;;;-1.20;99.90;;;;;;4118273;28;20824;-78
2022/03/08 05:11:54;;;;;;;8.00;3.80;;;-1.20;99.90;;;;;;4132863;28;20451;-77
2022/03/08 05:13:56;;;;;;;7.67;3.50;;;-1.20;99.90;;;;;;4126695;28;20472;-78
2022/03/08 05:15:58;;;;;;;8.57;3.97;;;-1.20;99.90;;;;;;4133917;28;20491;-77
2022/03/08 05:18:00;;;;;;;8.27;3.50;;;-1.20;99.90;;;;;;4133113;28;20539;-77
2022/03/08 05:20:03;;;;;;;6.67;3.70;;;-1.20;99.90;;;;;;4196824;23;20955;-84
2022/03/08 05:22:06;;;;;;;6.37;3.30;;;-1.30;99.90;;;;;;4160527;28;21006;-85
2022/03/08 05:24:08;;;;;;;6.20;3.50;;;-1.30;99.90;;;;;;4156809;28;20461;-81
2022/03/08 05:26:10;;;;;;;7.97;3.87;;;-1.30;99.90;;;;;;4152587;28;20462;-82
2022/03/08 05:28:12;;;;;;;10.30;4.03;;;-1.30;99.90;;;;;;4151160;28;20555;-82
2022/03/08 05:30:14;;;;;;;6.77;3.57;;;-1.30;99.90;;;;;;4151833;28;21041;-81
2022/03/08 05:32:16;;;;;;;7.63;3.50;;;-0.90;99.90;;;;;;4146038;28;20522;-83
2022/03/08 05:34:17;;;;;;;6.43;3.53;;;-1.30;99.90;;;;;;4152081;28;20463;-83
2022/03/08 05:36:19;;;;;;;7.60;3.63;;;-1.30;99.90;;;;;;4153185;28;20494;-83
2022/03/08 05:38:22;;;;;;;9.63;3.60;;;-1.30;99.90;;;;;;4151551;28;20517;-84
2022/03/08 05:40:24;;;;;;;8.90;3.60;;;-1.40;99.90;;;;;;4153317;28;20489;-81
2022/03/08 05:42:26;;;;;;;6.87;3.70;;;-1.30;99.90;;;;;;4142408;28;20481;-81
2022/03/08 05:44:28;;;;;;;8.43;3.87;;;-1.30;99.90;;;;;;4150086;28;21088;-82
2022/03/08 05:46:30;;;;;;;8.87;3.77;;;-1.40;99.90;;;;;;4152369;28;20458;-82
2022/03/08 05:48:31;;;;;;;8.17;3.97;;;-0.60;99.90;;;;;;4152258;28;20510;-81
2022/03/08 05:50:33;;;;;;;10.13;4.03;;;-1.40;99.90;;;;;;4152154;28;20466;-81
2022/03/08 05:52:35;;;;;;;7.60;3.70;;;-1.40;99.90;;;;;;4152701;28;20978;-84
2022/03/08 05:54:39;;;;;;;10.77;4.47;;;-1.40;99.90;;;;;;4145867;28;20872;-83
2022/03/08 05:56:40;;;;;;;10.03;4.10;;;-1.40;99.90;;;;;;4144761;28;20481;-82
2022/03/08 05:58:42;;;;;;;8.27;4.00;;;-1.40;99.90;;;;;;4153504;28;20538;-84
2022/03/08 06:00:44;;;;;;;8.80;3.93;;;-1.40;99.90;;;;;;4148837;28;20500;-85
2022/03/08 06:02:46;;;;;;;11.23;4.40;;;-1.40;99.90;;;;;;4151884;28;20473;-85
2022/03/08 06:04:48;;;;;;;11.07;4.13;;;-1.40;99.90;;;;;;4147843;28;20474;-85
2022/03/08 06:06:52;;;;;;;8.17;3.87;;;-1.40;99.90;;;;;;4149035;28;20555;-86
2022/03/08 06:08:54;;;;;;;8.50;4.10;;;-1.50;99.90;;;;;;4149961;28;20486;-84
2022/03/08 06:10:57;;;;;;;9.67;4.20;;;-2.00;99.90;;;;;;4154362;28;20483;-83
2022/03/08 06:12:59;;;;;;;8.77;3.97;;;-1.40;99.90;;;;;;4160565;28;20885;-81
2022/03/08 06:15:01;;;;;;;11.20;4.30;;;-1.40;99.90;;;;;;4160088;28;20455;-82
2022/03/08 06:17:03;;;;;;;8.63;4.10;;;-1.50;99.90;;;;;;4162761;28;20534;-82
2022/03/08 06:19:05;;;;;;;8.60;3.70;;;-1.50;99.90;;;;;;4166746;28;20457;-80
2022/03/08 06:21:07;;;;;;;10.23;4.07;;;-1.40;99.90;;;;;;4167866;28;20502;-80
2022/03/08 06:23:09;;;;;;;10.00;4.03;;;-1.50;99.90;;;;;;4154957;28;20435;-83
2022/03/08 06:25:12;;;;;;;8.07;4.10;;;-1.40;99.90;;;;;;4151426;28;20294;-81
2022/03/08 06:27:15;;;;;;;8.73;4.23;;;-1.50;99.90;;;;;;4149059;28;20804;-83
2022/03/08 06:29:17;;;;;;;8.80;4.43;;;-1.50;99.90;;;;;;4154426;28;20486;-80
2022/03/08 06:31:19;;;;;;;8.20;4.23;;;-1.50;99.90;;;;;;4141718;28;20995;-82
2022/03/08 06:33:38;;;;;;;12.23;4.00;;;-1.50;99.90;;;;;;4160694;28;20478;-82
2022/03/08 06:35:40;;;;;;;9.90;4.63;;;-1.50;99.90;;;;;;4150967;28;20963;-80
2022/03/08 06:37:44;;;;;;;12.57;4.73;;;-1.50;99.90;;;;;;4153662;28;20491;-83
2022/03/08 06:39:46;;;;;;;9.57;4.37;;;-1.20;99.90;;;;;;4151039;28;20550;-80
2022/03/08 06:41:48;;;;;;;9.57;4.20;;;-1.50;99.90;;;;;;4145543;28;20528;-83
2022/03/08 06:43:51;;;;;;;9.73;4.27;;;-1.50;99.90;;;;;;4142627;28;20216;-82
2022/03/08 06:45:53;;;;;;;11.15;4.80;;;-0.40;99.90;;;;;;4147773;28;20462;-81
2022/03/08 06:47:55;;;;;;;10.13;4.23;;;-1.50;99.90;;;;;;4150236;28;20590;-80
2022/03/08 06:49:57;;;;;;;11.20;3.90;;;-1.40;99.90;;;;;;4151446;28;20501;-82
2022/03/08 06:51:59;;;;;;;10.70;4.83;;;-1.40;99.90;;;;;;4149025;28;20474;-82
2022/03/08 06:54:00;;;;;;;11.43;4.63;;;-1.10;99.90;;;;;;4151200;28;20541;-82
2022/03/08 06:56:02;;;;;;;11.60;4.80;;;-0.90;99.90;;;;;;4150799;28;20463;-81
2022/03/08 06:58:04;;;;;;;9.17;4.40;;;-1.40;99.90;;;;;;4143705;28;20463;-83
2022/03/08 07:00:09;;;;;;;10.43;5.37;;;-1.40;99.90;;;;;;4150048;28;20502;-83
2022/03/08 07:02:11;;;;;;;8.27;4.03;;;-1.40;99.90;;;;;;4145058;28;20474;-83
2022/03/08 07:04:13;;;;;;;9.77;4.70;;;-1.40;99.90;;;;;;4147307;28;20460;-83
2022/03/08 07:06:14;;;;;;;8.90;4.47;;;-1.40;99.90;;;;;;4152418;28;20455;-82
2022/03/08 07:08:16;;;;;;;10.83;4.50;;;-1.40;99.90;;;;;;4149300;28;20817;-80
2022/03/08 07:10:18;;;;;;;8.07;4.30;;;-1.40;99.90;;;;;;4152430;28;20491;-83
2022/03/08 07:12:20;;;;;;;9.63;4.50;;;-1.30;99.90;;;;;;4148051;28;20525;-83
2022/03/08 07:14:22;;;;;;;11.27;4.43;;;-1.30;99.90;;;;;;4145228;28;20460;-83
2022/03/08 07:16:25;;;;;;;10.40;4.30;;;-1.30;99.90;;;;;;4152399;28;20465;-82
2022/03/08 07:18:27;;;;;;;15.03;5.93;;;-1.30;99.90;;;;;;4150100;28;20557;-83
2022/03/08 07:20:29;;;;;;;14.27;6.37;;;-1.30;99.90;;;;;;4151775;28;20491;-81
2022/03/08 07:22:32;;;;;;;12.97;5.43;;;-1.30;99.90;;;;;;4151604;28;20458;-82
2022/03/08 07:24:34;;;;;;;11.27;5.23;;;-1.20;99.90;;;;;;4149251;28;20477;-83
2022/03/08 07:26:36;;;;;;;11.13;5.17;;;-1.20;99.90;;;;;;4147197;28;20464;-83
2022/03/08 07:28:38;;;;;;;10.83;4.90;;;-1.20;99.90;;;;;;4141034;28;20506;-82
2022/03/08 07:30:40;;;;;;;10.93;5.20;;;-1.20;99.90;;;;;;4147071;28;20494;-83
2022/03/08 07:32:43;;;;;;;9.37;4.50;;;-1.20;99.90;;;;;;4145747;28;20504;-83
2022/03/08 07:34:51;;;;;;;9.47;4.60;;;-1.10;99.90;;;;;;4149553;28;20443;-83
2022/03/08 07:36:53;;;;;;;8.73;4.53;;;-0.90;99.90;;;;;;4153684;28;20466;-83
2022/03/08 07:38:55;;;;;;;7.80;3.97;;;-1.10;99.90;;;;;;4156410;28;20481;-83
2022/03/08 07:40:57;;;;;;;10.40;4.70;;;-0.90;99.90;;;;;;4156179;28;20848;-83
2022/03/08 07:43:00;;;;;;;9.27;4.13;;;-1.10;99.90;;;;;;4143310;28;20558;-83
2022/03/08 07:45:04;;;;;;;8.83;4.17;;;-1.00;99.90;;;;;;4144547;28;20466;-83
2022/03/08 07:47:08;;;;;;;8.73;4.07;;;-1.00;99.90;;;;;;4146539;28;20453;-83
2022/03/08 07:49:11;;;;;;;8.77;3.97;;;-1.00;99.90;;;;;;4148183;28;20494;-83
2022/03/08 07:51:13;;;;;;;7.30;3.67;;;-0.90;99.90;;;;;;4147988;28;20862;-83
2022/03/08 07:53:15;;;;;;;7.13;3.70;;;-0.90;99.90;;;;;;4148044;28;20467;-83
2022/03/08 07:55:17;;;;;;;7.63;3.60;;;-0.90;99.90;;;;;;4145637;28;20458;-83
2022/03/08 07:57:18;;;;;;;7.40;3.63;;;-0.80;99.90;;;;;;4144370;28;20470;-83
2022/03/08 07:59:20;;;;;;;9.70;3.97;;;-0.80;99.90;;;;;;4146172;28;21216;-83
2022/03/08 08:01:22;;;;;;;10.23;3.83;;;-0.30;99.90;;;;;;4147898;28;20551;-83
2022/03/08 08:03:24;;;;;;;7.37;3.60;;;-0.30;99.90;;;;;;4142876;28;20497;-82
2022/03/08 08:05:27;;;;;;;7.03;3.70;;;-0.70;99.90;;;;;;4144875;28;20562;-82
2022/03/08 08:07:29;;;;;;;6.40;3.60;;;-0.70;99.90;;;;;;4141601;28;20459;-81
2022/03/08 08:09:31;;;;;;;7.30;3.50;;;-0.70;99.90;;;;;;4146399;28;21115;-81
2022/03/08 08:11:33;;;;;;;8.53;3.50;;;-0.70;99.90;;;;;;4145966;28;20485;-82
2022/03/08 08:13:35;;;;;;;5.60;3.23;;;-0.60;99.90;;;;;;4145789;28;20541;-82
2022/03/08 08:15:39;;;;;;;8.73;3.33;;;-0.60;99.90;;;;;;4146052;28;20553;-81
2022/03/08 08:17:41;;;;;;;7.37;3.63;;;-0.60;99.90;;;;;;4146577;28;20478;-82
2022/03/08 08:19:43;;;;;;;7.60;3.97;;;-0.50;99.90;;;;;;4147712;28;20966;-82
2022/03/08 08:21:46;;;;;;;6.10;3.60;;;0.30;99.90;;;;;;4146292;28;20950;-82
2022/03/08 08:23:47;;;;;;;6.67;3.60;;;-0.50;99.90;;;;;;4150534;28;20915;-81
2022/03/08 08:25:49;;;;;;;8.27;3.57;;;-0.40;99.90;;;;;;4145415;28;20476;-81
2022/03/08 08:27:51;;;;;;;7.73;3.60;;;-0.40;99.90;;;;;;4149514;28;20542;-81
2022/03/08 08:29:53;;;;;;;7.20;3.50;;;-0.30;99.90;;;;;;4148362;28;20493;-81
2022/03/08 08:31:54;;;;;;;9.80;4.00;;;-0.30;99.90;;;;;;4145917;28;20797;-81
2022/03/08 08:33:56;;;;;;;6.70;3.60;;;-0.20;99.90;;;;;;4149018;28;20843;-82
2022/03/08 08:35:58;;;;;;;8.70;3.77;;;-0.20;99.90;;;;;;4147500;28;20459;-82
2022/03/08 08:38:01;;;;;;;8.03;4.10;;;-0.10;99.90;;;;;;4145074;28;20458;-82
2022/03/08 08:40:04;;;;;;;7.97;3.47;;;-0.10;99.90;;;;;;4146769;28;20464;-81
2022/03/08 08:42:06;;;;;;;7.10;3.40;;;-0.10;99.90;;;;;;4144900;28;20480;-81
2022/03/08 08:44:08;;;;;;;8.03;3.47;;;0.20;99.90;;;;;;4149281;28;20495;-81
2022/03/08 08:46:10;;;;;;;8.70;3.47;;;0.00;99.90;;;;;;4148527;28;20517;-81
2022/03/08 08:48:12;;;;;;;8.27;3.30;;;0.10;99.90;;;;;;4149185;28;20500;-82
2022/03/08 08:50:13;;;;;;;7.13;3.60;;;0.10;99.90;;;;;;4146921;28;20504;-81
2022/03/08 08:52:15;;;;;;;7.53;3.53;;;0.10;99.90;;;;;;4148000;28;20936;-81
2022/03/08 08:54:19;;;;;;;7.53;3.63;;;0.20;99.90;;;;;;4148573;28;20491;-81
2022/03/08 08:56:20;;;;;;;8.07;3.87;;;0.50;99.90;;;;;;4147030;28;20853;-82
2022/03/08 08:58:22;;;;;;;8.30;3.70;;;0.30;99.90;;;;;;4145792;28;21022;-81
2022/03/08 09:00:24;;;;;;;7.23;3.53;;;0.30;99.90;;;;;;4147735;28;20535;-81
2022/03/08 09:02:26;;;;;;;7.40;3.83;;;0.40;99.90;;;;;;4147830;28;20478;-82
2022/03/08 09:04:27;;;;;;;5.07;3.30;;;0.40;99.90;;;;;;4150012;28;20618;-82
2022/03/08 09:06:29;;;;;;;6.70;3.60;;;0.50;99.90;;;;;;4147866;28;20476;-80
2022/03/08 09:08:31;;;;;;;5.80;3.30;;;0.50;99.90;;;;;;4149589;28;20475;-82
2022/03/08 09:10:34;;;;;;;6.03;3.30;;;0.50;99.90;;;;;;4149569;28;20638;-82
2022/03/08 09:12:36;;;;;;;7.73;3.70;;;0.60;99.90;;;;;;4151624;28;20466;-81
2022/03/08 09:14:38;;;;;;;6.03;3.37;;;0.60;99.90;;;;;;4153304;28;20464;-82
2022/03/08 09:16:40;;;;;;;6.07;3.20;;;0.70;99.90;;;;;;4152591;28;20483;-82
2022/03/08 09:18:43;;;;;;;8.13;3.73;;;0.70;99.90;;;;;;4151757;28;20481;-82
2022/03/08 09:20:45;;;;;;;6.27;3.50;;;0.80;99.90;;;;;;4153549;28;20494;-82
2022/03/08 09:22:47;;;;;;;5.80;3.60;;;0.80;99.90;;;;;;4150891;28;20841;-83
2022/03/08 09:24:49;;;;;;;6.50;3.17;;;1.00;99.90;;;;;;4149005;28;21375;-84
2022/03/08 09:26:53;;;;;;;6.37;3.40;;;0.90;99.90;;;;;;4153578;28;20921;-82
2022/03/08 09:28:57;;;;;;;5.07;2.97;;;1.10;99.90;;;;;;4149183;28;20484;-81
2022/03/08 09:31:02;;;;;;;8.30;3.80;;;1.00;99.90;;;;;;4149875;28;20494;-82
2022/03/08 09:33:04;;;;;;;6.30;3.30;;;1.10;99.90;;;;;;4152015;28;20488;-81
2022/03/08 09:35:07;;;;;;;6.03;3.27;;;1.30;99.90;;;;;;4150734;28;20458;-84
2022/03/08 09:37:09;;;;;;;5.63;3.20;;;1.20;99.90;;;;;;4149944;28;20509;-86
2022/03/08 09:39:12;;;;;;;7.93;3.73;;;1.30;99.90;;;;;;4145067;28;20472;-83
2022/03/08 09:41:14;;;;;;;5.70;3.10;;;1.30;99.90;;;;;;4153720;28;20605;-81
2022/03/08 09:43:17;;;;;;;4.93;3.00;;;1.40;99.90;;;;;;4148104;28;20819;-82
2022/03/08 09:45:19;;;;;;;5.67;2.83;;;1.40;99.90;;;;;;4151160;28;20530;-81
2022/03/08 09:47:22;;;;;;;7.37;3.27;;;1.50;99.90;;;;;;4149365;28;20480;-81
2022/03/08 09:49:24;;;;;;;6.90;2.83;;;1.80;99.90;;;;;;4149458;28;20465;-81
2022/03/08 09:51:27;;;;;;;4.77;3.00;;;1.60;99.90;;;;;;4148352;28;20486;-83
2022/03/08 09:53:30;;;;;;;4.90;2.73;;;1.60;99.90;;;;;;4150624;28;20471;-81
2022/03/08 09:55:32;;;;;;;4.80;2.77;;;1.70;99.90;;;;;;4149938;28;20461;-81
2022/03/08 09:57:34;;;;;;;5.77;2.80;;;1.80;99.90;;;;;;4150157;28;20464;-84
2022/03/08 09:59:37;;;;;;;6.03;2.93;;;2.00;99.90;;;;;;4150354;28;20454;-82
2022/03/08 10:01:39;;;;;;;4.63;2.63;;;1.90;99.90;;;;;;4149311;28;20474;-83
2022/03/08 10:03:43;;;;;;;5.00;2.70;;;1.90;99.90;;;;;;4152102;28;20474;-82
2022/03/08 10:05:45;;;;;;;6.97;3.10;;;2.70;99.90;;;;;;4148094;28;20873;-81
2022/03/08 10:08:08;;;;;;;6.00;2.60;;;2.00;99.90;;;;;;4151616;28;20824;-81
2022/03/08 10:10:10;;;;;;;4.40;2.70;;;2.10;99.90;;;;;;4155980;28;20498;-86
2022/03/08 10:12:17;;;;;;;5.23;2.50;;;2.20;99.90;;;;;;4156878;28;20546;-82
2022/03/08 10:14:29;;;;;;;5.07;2.87;;;2.20;99.90;;;;;;4157533;28;20520;-84
2022/03/08 10:16:42;;;;;;;4.57;2.70;;;2.30;99.90;;;;;;4156538;28;20956;-82
2022/03/08 10:18:45;;;;;;;5.30;2.70;;;2.40;99.90;;;;;;4154998;28;20887;-86
2022/03/08 10:20:47;;;;;;;4.77;2.27;;;2.50;99.90;;;;;;4149693;28;20573;-84
2022/03/08 10:22:48;;;;;;;5.07;2.33;;;2.50;99.90;;;;;;4146125;28;20497;-86
2022/03/08 10:24:50;;;;;;;4.83;2.30;;;2.60;99.90;;;;;;4147121;28;20475;-80
2022/03/08 10:26:55;;;;;;;6.43;2.87;;;2.70;99.90;;;;;;4147746;28;20478;-79
2022/03/08 10:28:59;;;;;;;5.80;2.53;;;2.70;99.90;;;;;;4147304;28;20513;-83
2022/03/08 10:31:00;;;;;;;5.10;2.87;;;2.80;99.90;;;;;;4144825;28;20501;-78
2022/03/08 10:33:04;;;;;;;5.87;3.00;;;2.90;99.90;;;;;;4145550;28;20474;-79
2022/03/08 10:35:08;;;;;;;7.70;3.00;;;3.00;99.90;;;;;;4144781;28;21228;-79
2022/03/08 10:37:14;;;;;;;5.83;2.40;;;3.10;99.90;;;;;;4144778;28;20493;-81
2022/03/08 10:39:17;;;;;;;3.97;2.50;;;3.20;99.90;;;;;;4146367;28;20470;-80
2022/03/08 10:41:20;;;;;;;4.70;2.33;;;3.30;99.90;;;;;;4144059;28;20491;-79